Acworth, New Hampshire
Current Conditions -  °F | °C
As of 11:06 AM on Wednesday 22 Oct 2014 (Local Time) from KVSF Reporting Station
Light Rain Light Rain  
Wind Chill: 49°   Ceiling: 2000
Heat Index: 49°   Visibility: 1.7mi
Dew Point: 45°   Wind: 3mph
Humidity: 86%   Direction: NA
Pressure: 30.13"   Gusts: NA
Location:  43.22°N, 72.29°W
Report Text: KVSF 221506Z AUTO VRB03KT 1 3/4SM -RA BR OVC020 09/07 A3013 RMK AO2 RAB1457 P0000 T00940072
Loading
Personal Weather Stations






























Interactive Weather Map
Tropical Storm Tracking
New forecast layout! Learn more

10-Day Weather Forecast

Advertisements
Track Severe Weather on mobile